ADDS METAR Data INFO
IDs: Format: Raw Decoded Include TAF

Data at: 2334 UTC 15 Dec 2017

KGVL 152253Z AUTO 28010G18KT 10SM CLR 01/M05 A3010 RMK AO2 SLP197 T00061050
KGVL 152153Z AUTO 28013G20KT 10SM CLR 02/M05 A3008 RMK AO2 SLP190 T00171050
KGVL 152053Z AUTO 28011G19KT 10SM CLR 02/M04 A3005 RMK AO2 SLP180 T00221044 53012
KGVL 151953Z AUTO 27012KT 10SM CLR 03/M04 A3003 RMK AO2 SLP173 T00331039
KGVL 151853Z AUTO 26013G19KT 10SM CLR 03/M04 A3003 RMK AO2 SLP171 T00281039
KGVL 151753Z AUTO 28011KT 10SM CLR 02/M04 A3002 RMK AO2 SLP167 T00221044 10050 20017 58002
KGVL 151653Z AUTO 27013KT 10SM CLR 04/M03 A3003 RMK AO2 SLP171 T00391033
KGVL 151553Z AUTO 28009G16KT 10SM CLR 05/M03 A3002 RMK AO2 SLP168 T00501028
KGVL 151453Z AUTO 28007KT 10SM CLR 03/M02 A3002 RMK AO2 SLP169 T00331017 51013
KGVL 151353Z AUTO 26007KT 10SM CLR 02/M01 A3001 RMK AO2 SLP166 T00221011
KGVL 151253Z AUTO 27007KT 10SM CLR 02/M01 A3000 RMK AO2 SLP161 T00171006
KGVL 151153Z AUTO 26007KT 10SM CLR 02/M01 A2998 RMK AO2 SLP154 T00221006 10067 20017 53005
KGVL 151053Z AUTO 26007KT 10SM CLR 03/00 A2998 RMK AO2 SLP152 T00330000
KGVL 150953Z AUTO 26005KT 10SM CLR 04/00 A2996 RMK AO2 SLP146 T00390000
KGVL 150853Z AUTO 25005KT 10SM CLR 04/00 A2997 RMK AO2 SLP147 T00390000 58003
KGVL 150753Z AUTO 28003KT 10SM CLR 06/00 A2997 RMK AO2 SLP146 T00560000
KGVL 150653Z AUTO 26006KT 10SM CLR 06/01 A2998 RMK AO2 SLP150 T00560006
KGVL 150553Z AUTO 26005KT 10SM CLR 06/01 A2998 RMK AO2 SLP150 T00610011 10083 20056 50000
KGVL 150453Z AUTO 25004KT 10SM CLR 07/01 A2998 RMK AO2 SLP152 T00670006 401280028
KGVL 150353Z AUTO 25004KT 10SM CLR 06/00 A2998 RMK AO2 SLP153 T00610000
KGVL 150253Z AUTO 27004KT 10SM CLR 07/00 A2998 RMK AO2 SLP152 T00670000 51011
KGVL 150153Z AUTO 24003KT 10SM CLR 07/M01 A2997 RMK AO2 SLP151 T00721006
KGVL 150053Z AUTO 24004KT 10SM CLR 07/M01 A2996 RMK AO2 SLP146 T00721011
KGVL 142353Z AUTO 29003KT 10SM CLR 08/M01 A2994 RMK AO2 SLP141 T00831011 10128 20083 51010
KGVL 142253Z AUTO 29005KT 10SM CLR 09/M02 A2993 RMK AO2 SLP136 T00891017
KGVL 142153Z AUTO 30010KT 10SM CLR 11/M02 A2993 RMK AO2 SLP135 T01111022
KGVL 142053Z AUTO 27013G19KT 10SM CLR 12/M03 A2991 RMK AO2 SLP128 T01221028 53005
KGVL 141953Z AUTO 26014G22KT 10SM CLR 13/M02 A2990 RMK AO2 SLP124 T01281022
KGVL 141853Z AUTO 26015G22KT 10SM CLR 12/M02 A2990 RMK AO2 SLP123 T01221022
KGVL 141753Z AUTO 26010G16KT 10SM CLR 12/M01 A2990 RMK AO2 SLP123 T01171011 10117 20028 50002
KGVL 141653Z AUTO 24009KT 10SM CLR 10/M02 A2991 RMK AO2 SLP127 T01001017
KGVL 141553Z AUTO 25009KT 10SM CLR 08/M02 A2991 RMK AO2 SLP130 T00831022
KGVL 141453Z AUTO 29010KT 10SM CLR 07/M02 A2989 RMK AO2 SLP122 T00671022 51017
KGVL 141353Z AUTO 27009KT 10SM CLR 05/M03 A2988 RMK AO2 SLP121 T00501028
KGVL 141253Z AUTO 26010KT 10SM CLR 03/M03 A2986 RMK AO2 SLP116 T00331028
KGVL 141153Z AUTO 27009KT 10SM CLR 03/M03 A2984 RMK AO2 SLP106 T00281033 10044 20028 53011